Terminal Aerodrome Forecast
Issued by NWS

Home | Current Version | Previous Version | Text Only | Print | Product List | Glossary On
Versions: 1 2 3 4 5 6 7 8 9 10 11 12
000
FTPA31 PHFO 250535
TAFHMK
TAF
PHMK 250535Z 2506/2606 05010KT P6SM SCT020 SCT040 BKN250
      TEMPO 2506/2510 05010G20KT
     FM251900 06012G25KT P6SM FEW020 SCT040 BKN250=

USA.gov is the U.S. government's official web portal to all federal, state and local government web resources and services.